createdAt,value
2022-10-05T00:01:28.064Z,3.75
2022-10-05T00:05:45.985Z,3.83
2022-10-05T00:10:10.627Z,3.58
2022-10-05T00:14:35.764Z,4.40
2022-10-05T00:18:53.807Z,3.72
2022-10-05T00:23:15.581Z,3.37
2022-10-05T00:27:39.085Z,3.55
2022-10-05T00:36:11.122Z,3.72
2022-10-05T00:41:09.688Z,4.87
2022-10-05T00:45:33.046Z,4.50
2022-10-05T00:50:04.217Z,3.95
2022-10-05T00:54:49.615Z,3.95
2022-10-05T00:59:42.962Z,4.10
2022-10-05T01:04:10.759Z,4.43
2022-10-05T01:09:05.220Z,4.47
2022-10-05T01:13:50.438Z,4.28
2022-10-05T01:18:12.480Z,4.45
2022-10-05T01:22:52.426Z,3.87
2022-10-05T01:27:37.186Z,4.15
2022-10-05T01:32:21.000Z,4.07
2022-10-05T01:41:26.012Z,3.58
2022-10-05T01:45:51.679Z,3.97
2022-10-05T01:50:32.210Z,3.75
2022-10-05T01:55:13.828Z,3.85
2022-10-05T01:59:53.454Z,4.30
2022-10-05T02:04:42.615Z,3.78
2022-10-05T02:09:09.188Z,3.47
2022-10-05T02:13:41.440Z,3.42
2022-10-05T02:18:09.785Z,3.65
2022-10-05T02:22:45.968Z,3.87
2022-10-05T02:27:02.686Z,3.17
2022-10-05T02:31:23.289Z,3.28
2022-10-05T02:35:39.570Z,3.62
2022-10-05T02:40:43.155Z,3.40
2022-10-05T02:45:54.035Z,3.80
2022-10-05T02:50:27.320Z,3.28
2022-10-05T02:55:10.688Z,3.50
2022-10-05T02:59:43.808Z,4.05
2022-10-05T03:04:21.726Z,3.62
2022-10-05T03:09:01.890Z,3.95
2022-10-05T03:13:40.589Z,4.32
2022-10-05T03:17:59.824Z,4.05
2022-10-05T03:22:54.207Z,3.75
2022-10-05T03:27:19.017Z,4.87
2022-10-05T03:31:55.517Z,4.07
2022-10-05T03:36:44.210Z,4.10
2022-10-05T03:41:22.806Z,3.50
2022-10-05T03:45:48.902Z,4.05
2022-10-05T03:50:42.508Z,4.30
2022-10-05T03:55:23.868Z,3.75
2022-10-05T03:59:56.747Z,3.45
2022-10-05T04:04:18.167Z,4.00
2022-10-05T04:08:40.602Z,3.92
2022-10-05T04:13:24.685Z,4.07
2022-10-05T04:17:46.947Z,4.10
2022-10-05T04:22:22.887Z,3.50
2022-10-05T04:26:45.850Z,4.12
2022-10-05T04:31:05.656Z,4.43
2022-10-05T04:35:30.628Z,5.35
2022-10-05T04:40:01.285Z,5.37
2022-10-05T04:44:32.279Z,4.82
2022-10-05T04:49:09.370Z,5.10
2022-10-05T04:53:53.492Z,4.25
2022-10-05T04:58:42.416Z,5.30
2022-10-05T05:03:25.773Z,4.90
2022-10-05T05:07:51.533Z,5.45
2022-10-05T05:12:35.018Z,5.32
2022-10-05T05:17:03.522Z,5.22
2022-10-05T05:21:42.738Z,5.68
2022-10-05T05:26:07.966Z,5.12
2022-10-05T05:30:26.812Z,4.93
2022-10-05T05:35:27.140Z,4.55
2022-10-05T05:39:53.718Z,4.55
2022-10-05T05:44:18.679Z,4.95
2022-10-05T05:48:46.740Z,4.80
2022-10-05T05:53:20.908Z,12.05
2022-10-05T05:57:46.908Z,12.35
2022-10-05T06:02:16.354Z,11.68
2022-10-05T06:06:36.216Z,6.20
2022-10-05T06:10:57.971Z,5.72
2022-10-05T06:15:28.491Z,8.90
2022-10-05T06:19:46.221Z,5.80
2022-10-05T06:24:17.317Z,5.60
2022-10-05T06:28:33.375Z,5.75
2022-10-05T06:33:04.491Z,4.95
2022-10-05T06:37:53.110Z,4.62
2022-10-05T06:42:09.063Z,5.00
2022-10-05T06:46:40.155Z,5.32
2022-10-05T06:51:09.326Z,5.43
2022-10-05T06:55:49.341Z,5.47
2022-10-05T07:00:20.754Z,5.43
2022-10-05T07:05:01.571Z,21.52
2022-10-05T07:09:44.865Z,6.80
2022-10-05T07:14:30.366Z,5.25
2022-10-05T07:19:21.748Z,5.40
2022-10-05T07:23:59.523Z,8.65
2022-10-05T07:28:31.735Z,9.68
2022-10-05T07:33:23.351Z,9.27
2022-10-05T07:37:55.319Z,7.93
2022-10-05T07:42:32.968Z,11.88
2022-10-05T07:47:13.346Z,6.55
2022-10-05T07:51:45.464Z,5.62
2022-10-05T07:56:06.719Z,4.80
2022-10-05T08:00:24.570Z,4.68
2022-10-05T08:05:01.081Z,4.62
2022-10-05T08:09:39.405Z,5.37
2022-10-05T08:14:18.072Z,5.05
2022-10-05T08:19:28.412Z,4.85
2022-10-05T08:23:50.955Z,4.43
2022-10-05T08:28:23.859Z,3.97
2022-10-05T08:32:56.015Z,4.37
2022-10-05T08:37:35.682Z,3.20
2022-10-05T08:41:58.300Z,3.80
2022-10-05T08:46:36.840Z,4.20
2022-10-05T08:51:17.844Z,3.67
2022-10-05T08:56:28.855Z,2.83
2022-10-05T09:00:54.343Z,2.40
2022-10-05T09:05:25.436Z,2.72
2022-10-05T09:10:01.413Z,2.25
2022-10-05T09:14:30.936Z,2.28
2022-10-05T09:19:09.006Z,2.10
2022-10-05T09:23:45.307Z,2.40
2022-10-05T09:28:23.041Z,1.90
2022-10-05T09:32:54.704Z,3.35
2022-10-05T09:37:23.082Z,2.35
2022-10-05T09:41:50.682Z,2.10
2022-10-05T09:46:25.505Z,2.40
2022-10-05T09:50:52.152Z,1.80
2022-10-05T09:55:19.966Z,1.92
2022-10-05T09:59:47.036Z,1.90
2022-10-05T10:04:07.207Z,2.05
2022-10-05T10:08:47.192Z,1.67
2022-10-05T10:13:28.759Z,2.15
2022-10-05T10:17:57.169Z,2.05
2022-10-05T10:22:47.529Z,1.90
2022-10-05T10:27:16.742Z,1.75
2022-10-05T10:31:40.697Z,1.92
2022-10-05T10:36:11.817Z,1.77
2022-10-05T10:41:09.505Z,1.70
2022-10-05T10:45:56.871Z,1.75
2022-10-05T10:50:40.860Z,2.00
2022-10-05T10:55:21.283Z,2.03
2022-10-05T11:00:08.406Z,2.10
2022-10-05T11:04:45.687Z,2.10
2022-10-05T11:09:11.441Z,1.92
2022-10-05T11:13:55.806Z,1.77
2022-10-05T11:18:17.814Z,1.98
2022-10-05T11:23:05.273Z,2.20
2022-10-05T11:27:37.544Z,1.70
2022-10-05T11:32:32.841Z,1.90
2022-10-05T11:36:57.201Z,1.83
2022-10-05T11:41:47.146Z,1.85
2022-10-05T11:46:30.092Z,1.70
2022-10-05T11:51:17.306Z,1.65
2022-10-05T11:55:42.084Z,1.70
2022-10-05T11:59:59.591Z,1.52
2022-10-05T12:04:39.766Z,1.70
2022-10-05T12:09:23.905Z,1.77
2022-10-05T12:14:17.524Z,1.55
2022-10-05T12:18:34.316Z,1.65
2022-10-05T12:22:59.258Z,1.95
2022-10-05T12:27:22.948Z,2.42
2022-10-05T12:31:41.692Z,2.05
2022-10-05T12:36:14.590Z,1.62
2022-10-05T12:40:42.277Z,2.42
2022-10-05T12:45:23.908Z,1.52
2022-10-05T12:49:46.079Z,1.50
2022-10-05T12:54:09.165Z,1.98
2022-10-05T13:03:02.060Z,2.35
2022-10-05T13:07:41.342Z,2.22
2022-10-05T13:12:04.054Z,1.77
2022-10-05T13:16:54.823Z,2.00
2022-10-05T13:21:22.063Z,2.25
2022-10-05T13:25:44.855Z,2.25
2022-10-05T13:30:12.918Z,2.40
2022-10-05T13:35:10.585Z,2.40
2022-10-05T13:39:42.673Z,2.22
2022-10-05T13:44:17.613Z,1.80
2022-10-05T13:48:52.514Z,1.60
2022-10-05T13:53:36.752Z,1.92
2022-10-05T13:58:06.239Z,1.62
2022-10-05T14:02:27.889Z,2.00
2022-10-05T14:06:44.661Z,2.00
2022-10-05T14:11:20.427Z,1.87
2022-10-05T14:15:41.964Z,1.83
2022-10-05T14:20:03.070Z,1.75
2022-10-05T14:24:50.768Z,1.70
2022-10-05T14:29:19.061Z,1.92
2022-10-05T14:33:37.553Z,1.80
2022-10-05T14:38:16.642Z,1.80
2022-10-05T14:42:46.263Z,1.75
2022-10-05T14:47:20.425Z,1.87
2022-10-05T14:51:37.764Z,2.03
2022-10-05T14:56:03.246Z,1.80
2022-10-05T15:00:19.929Z,1.75
2022-10-05T15:05:00.082Z,1.90
2022-10-05T15:09:33.641Z,1.95
2022-10-05T15:13:50.116Z,1.90
2022-10-05T15:18:34.934Z,2.55
2022-10-05T15:23:13.139Z,2.05
2022-10-05T15:27:54.207Z,2.17
2022-10-05T15:32:19.527Z,1.85
2022-10-05T15:36:39.463Z,1.95
2022-10-05T15:41:03.159Z,2.55
2022-10-05T15:45:30.166Z,2.33
2022-10-05T15:50:10.654Z,2.42
2022-10-05T15:55:01.460Z,2.60
2022-10-05T15:59:38.770Z,2.50
2022-10-05T16:04:15.485Z,3.05
2022-10-05T16:08:54.394Z,2.70
2022-10-05T16:13:28.126Z,2.60
2022-10-05T16:18:05.338Z,3.22
2022-10-05T16:22:49.378Z,2.83
2022-10-05T16:27:17.301Z,3.10
2022-10-05T16:31:54.503Z,3.15
2022-10-05T16:36:23.317Z,2.72
2022-10-05T16:41:01.923Z,3.42
2022-10-05T16:45:30.393Z,2.72
2022-10-05T16:49:48.272Z,3.10
2022-10-05T16:54:13.443Z,3.40
2022-10-05T16:58:43.798Z,3.10
2022-10-05T17:03:10.443Z,3.08
2022-10-05T17:07:50.706Z,3.35
2022-10-05T17:12:16.533Z,3.25
2022-10-05T17:16:43.977Z,3.22
2022-10-05T17:21:15.564Z,3.20
2022-10-05T17:25:54.507Z,3.30
2022-10-05T17:30:29.513Z,3.33
2022-10-05T17:35:00.780Z,3.83
2022-10-05T17:39:16.932Z,3.87
2022-10-05T17:43:34.194Z,4.03
2022-10-05T17:48:10.089Z,3.67
2022-10-05T17:52:47.738Z,4.03
2022-10-05T17:57:04.840Z,4.12
2022-10-05T18:01:39.757Z,4.97
2022-10-05T18:06:28.459Z,4.90
2022-10-05T18:11:09.340Z,4.85
2022-10-05T18:15:25.340Z,3.60
2022-10-05T18:20:01.901Z,4.05
2022-10-05T18:24:27.135Z,3.42
2022-10-05T18:28:49.565Z,3.65
2022-10-05T18:33:25.474Z,3.70
2022-10-05T18:37:48.121Z,4.15
2022-10-05T18:42:16.166Z,4.03
2022-10-05T18:46:38.314Z,4.22
2022-10-05T18:51:05.568Z,4.28
2022-10-05T18:55:31.709Z,4.28
2022-10-05T19:00:08.305Z,4.40
2022-10-05T19:04:35.086Z,5.03
2022-10-05T19:09:28.767Z,4.97
2022-10-05T19:14:20.212Z,5.57
2022-10-05T19:18:40.052Z,5.50
2022-10-05T19:23:17.462Z,5.82
2022-10-05T19:28:12.122Z,6.15
2022-10-05T19:32:44.146Z,5.68
2022-10-05T19:37:10.779Z,5.35
2022-10-05T19:41:45.466Z,5.80
2022-10-05T19:46:21.560Z,5.25
2022-10-05T19:50:39.950Z,6.00
2022-10-05T19:55:16.897Z,5.65
2022-10-05T19:59:32.966Z,6.18
2022-10-05T20:03:50.220Z,5.82
2022-10-05T20:08:09.350Z,6.53
2022-10-05T20:12:47.924Z,5.57
2022-10-05T20:17:46.221Z,6.30
2022-10-05T20:22:27.306Z,5.90
2022-10-05T20:27:32.722Z,6.28
2022-10-05T20:31:48.942Z,5.97
2022-10-05T20:36:05.292Z,6.32
2022-10-05T20:40:21.607Z,6.18
2022-10-05T20:44:38.695Z,5.97
2022-10-05T20:48:54.884Z,6.75
2022-10-05T20:53:12.055Z,7.05
2022-10-05T20:57:28.340Z,8.02
2022-10-05T21:01:48.101Z,7.00
2022-10-05T21:06:04.281Z,7.03
2022-10-05T21:10:20.435Z,7.00
2022-10-05T21:14:37.848Z,6.85
2022-10-05T21:18:53.930Z,6.75
2022-10-05T21:23:12.361Z,7.65
2022-10-05T21:27:28.431Z,8.27
2022-10-05T21:31:44.519Z,8.65
2022-10-05T21:36:00.793Z,8.40
2022-10-05T21:40:17.337Z,7.95
2022-10-05T21:44:33.369Z,8.15
2022-10-05T21:48:49.872Z,7.85
2022-10-05T21:53:07.706Z,6.60
2022-10-05T21:57:23.811Z,6.82
2022-10-05T22:01:39.989Z,6.05
2022-10-05T22:05:56.138Z,5.97
2022-10-05T22:10:12.480Z,6.75
2022-10-05T22:14:28.543Z,7.37
2022-10-05T22:18:44.601Z,6.10
2022-10-05T22:23:00.627Z,7.32
2022-10-05T22:27:16.904Z,7.57
2022-10-05T22:31:33.042Z,7.00
2022-10-05T22:35:49.293Z,6.40
2022-10-05T22:40:07.226Z,7.35
2022-10-05T22:44:23.309Z,7.97
2022-10-05T22:48:40.039Z,6.55
2022-10-05T22:52:56.111Z,7.15
2022-10-05T22:57:12.349Z,7.43
2022-10-05T23:01:28.502Z,6.45
2022-10-05T23:05:44.557Z,7.75
2022-10-05T23:10:00.634Z,8.40
2022-10-05T23:14:17.097Z,7.40
2022-10-05T23:18:33.999Z,7.40
2022-10-05T23:22:50.047Z,7.80
2022-10-05T23:27:06.017Z,8.65
2022-10-05T23:31:24.438Z,7.30
2022-10-05T23:35:40.461Z,8.82
2022-10-05T23:39:56.504Z,7.60
2022-10-05T23:44:12.596Z,7.70
2022-10-05T23:48:29.237Z,7.72
2022-10-05T23:52:45.579Z,7.28
2022-10-05T23:57:01.574Z,7.78
